createdAt,value
2019-01-13T00:02:13.817Z,22.17
2019-01-13T00:04:43.955Z,23.87
2019-01-13T00:07:17.556Z,23.67
2019-01-13T00:09:47.666Z,29.93
2019-01-13T00:12:17.789Z,24.23
2019-01-13T00:14:48.510Z,26.80
2019-01-13T00:17:18.658Z,30.23
2019-01-13T00:19:48.729Z,25.63
2019-01-13T00:22:18.948Z,29.47
2019-01-13T00:24:49.298Z,26.30
2019-01-13T00:27:19.629Z,28.27
2019-01-13T00:29:49.652Z,28.97
2019-01-13T00:32:22.587Z,29.93
2019-01-13T00:34:52.707Z,29.83
2019-01-13T00:37:22.767Z,29.53
2019-01-13T00:39:52.792Z,31.80
2019-01-13T00:42:23.002Z,30.43
2019-01-13T00:44:53.074Z,29.23
2019-01-13T00:47:23.205Z,27.20
2019-01-13T00:49:53.338Z,30.83
2019-01-13T00:52:23.719Z,31.43
2019-01-13T00:54:53.751Z,31.30
2019-01-13T00:57:24.052Z,30.77
2019-01-13T00:59:54.096Z,32.13
2019-01-13T01:02:24.168Z,31.50
2019-01-13T01:04:54.329Z,33.60
2019-01-13T01:07:25.628Z,31.50
2019-01-13T01:09:55.711Z,32.03
2019-01-13T01:12:25.815Z,33.63
2019-01-13T01:14:56.047Z,32.00
2019-01-13T01:17:26.411Z,32.43
2019-01-13T01:19:56.491Z,29.43
2019-01-13T01:22:29.943Z,31.97
2019-01-13T01:25:00.331Z,31.80
2019-01-13T01:27:30.523Z,33.20
2019-01-13T01:30:00.569Z,34.03
2019-01-13T01:32:30.689Z,31.30
2019-01-13T01:35:01.170Z,36.33
2019-01-13T01:37:31.383Z,34.00
2019-01-13T01:40:01.808Z,34.43
2019-01-13T01:42:33.225Z,32.27
2019-01-13T01:45:05.183Z,35.97
2019-01-13T01:47:35.344Z,34.20
2019-01-13T01:50:06.741Z,31.70
2019-01-13T01:52:36.990Z,35.10
2019-01-13T01:55:09.591Z,32.33
2019-01-13T01:57:39.864Z,34.60
2019-01-13T02:00:13.789Z,32.70
2019-01-13T02:02:44.088Z,34.67
2019-01-13T02:05:14.371Z,32.33
2019-01-13T02:07:44.500Z,33.40
2019-01-13T02:10:17.461Z,29.70
2019-01-13T02:12:49.824Z,31.73
2019-01-13T02:15:23.258Z,31.40
2019-01-13T02:17:53.944Z,26.00
2019-01-13T02:20:24.395Z,28.17
2019-01-13T02:22:54.650Z,26.33
2019-01-13T02:25:28.048Z,26.13
2019-01-13T02:27:58.240Z,26.27
2019-01-13T02:30:28.999Z,26.33
2019-01-13T02:32:59.089Z,28.03
2019-01-13T02:35:29.154Z,25.83
2019-01-13T02:37:59.345Z,25.77
2019-01-13T02:40:29.368Z,27.80
2019-01-13T02:42:59.702Z,28.63
2019-01-13T02:45:29.948Z,27.10
2019-01-13T02:48:00.048Z,27.87
2019-01-13T02:50:30.091Z,26.50
2019-01-13T02:53:00.226Z,26.83
2019-01-13T02:55:30.610Z,29.07
2019-01-13T02:58:01.021Z,27.87
2019-01-13T03:00:31.080Z,29.13
2019-01-13T03:03:01.138Z,29.30
2019-01-13T03:05:31.444Z,29.70
2019-01-13T03:08:01.603Z,32.17
2019-01-13T03:10:31.654Z,33.17
2019-01-13T03:13:03.466Z,31.80
2019-01-13T03:15:33.572Z,33.87
2019-01-13T03:18:03.954Z,33.90
2019-01-13T03:20:33.977Z,35.17
2019-01-13T03:23:05.124Z,32.57
2019-01-13T03:25:36.848Z,35.23
2019-01-13T03:28:07.083Z,40.37
2019-01-13T03:30:37.191Z,40.13
2019-01-13T03:33:07.403Z,39.10
2019-01-13T03:35:37.557Z,37.77
2019-01-13T03:38:08.305Z,35.90
2019-01-13T03:40:38.482Z,38.23
2019-01-13T03:43:10.068Z,43.10
2019-01-13T03:45:41.851Z,38.77
2019-01-13T03:48:11.901Z,41.70
2019-01-13T03:50:43.609Z,40.97
2019-01-13T03:53:13.871Z,41.30
2019-01-13T03:55:44.443Z,45.00
2019-01-13T03:58:14.611Z,44.03
2019-01-13T04:00:44.672Z,41.23
2019-01-13T04:03:16.639Z,37.70
2019-01-13T04:05:48.392Z,40.03
2019-01-13T04:08:20.226Z,38.93
2019-01-13T04:10:50.279Z,40.87
2019-01-13T04:13:22.220Z,37.83
2019-01-13T04:15:59.418Z,39.83
2019-01-13T04:18:29.977Z,35.20
2019-01-13T04:21:00.038Z,34.47
2019-01-13T04:23:30.259Z,34.67
2019-01-13T04:26:00.274Z,34.67
2019-01-13T04:28:31.241Z,32.97
2019-01-13T04:31:01.500Z,28.47
2019-01-13T04:33:31.858Z,31.33
2019-01-13T04:36:02.343Z,27.03
2019-01-13T04:38:32.431Z,29.00
2019-01-13T04:41:02.477Z,28.93
2019-01-13T04:43:32.568Z,32.73
2019-01-13T04:46:02.700Z,27.30
2019-01-13T04:48:32.841Z,28.97
2019-01-13T04:51:02.967Z,30.70
2019-01-13T04:53:33.278Z,28.00
2019-01-13T04:56:03.657Z,28.27
2019-01-13T04:58:33.877Z,27.30
2019-01-13T05:01:04.022Z,28.93
2019-01-13T05:03:34.550Z,31.50
2019-01-13T05:06:05.177Z,29.17
2019-01-13T05:08:35.300Z,30.80
2019-01-13T05:11:05.883Z,32.97
2019-01-13T05:13:36.083Z,33.20
2019-01-13T05:16:06.219Z,29.50
2019-01-13T05:18:36.427Z,32.27
2019-01-13T05:21:06.449Z,31.37
2019-01-13T05:23:36.520Z,32.60
2019-01-13T05:26:06.642Z,28.20
2019-01-13T05:28:37.076Z,34.93
2019-01-13T05:31:07.347Z,35.90
2019-01-13T05:33:38.819Z,40.27
2019-01-13T05:36:08.859Z,37.13
2019-01-13T05:38:38.943Z,41.43
2019-01-13T05:41:08.988Z,33.63
2019-01-13T05:43:39.198Z,43.93
2019-01-13T05:46:10.622Z,44.27
2019-01-13T05:48:42.370Z,39.43
2019-01-13T05:51:12.430Z,37.83
2019-01-13T05:53:42.486Z,36.23
2019-01-13T05:56:12.555Z,39.77
2019-01-13T05:58:42.689Z,40.70
2019-01-13T06:01:12.715Z,35.27
2019-01-13T06:03:42.845Z,36.57
2019-01-13T06:06:12.882Z,33.17
2019-01-13T06:08:43.106Z,35.23
2019-01-13T06:11:13.177Z,31.97
2019-01-13T06:13:43.290Z,32.33
2019-01-13T06:16:13.325Z,31.17
2019-01-13T06:18:43.844Z,28.03
2019-01-13T06:21:13.961Z,30.10
2019-01-13T06:23:44.606Z,30.43
2019-01-13T06:26:14.642Z,24.80
2019-01-13T06:28:44.721Z,25.63
2019-01-13T06:31:14.892Z,28.43
2019-01-13T06:33:45.084Z,20.20
2019-01-13T06:36:15.317Z,25.23
2019-01-13T06:38:45.593Z,21.93
2019-01-13T06:41:15.699Z,23.53
2019-01-13T06:43:45.916Z,18.60
2019-01-13T06:46:16.114Z,14.93
2019-01-13T06:48:46.424Z,17.07
2019-01-13T06:51:16.718Z,18.47
2019-01-13T06:53:46.800Z,20.00
2019-01-13T06:56:17.365Z,18.67
2019-01-13T06:58:47.474Z,18.43
2019-01-13T07:01:17.633Z,13.10
2019-01-13T07:03:49.527Z,15.03
2019-01-13T07:06:19.877Z,19.47
2019-01-13T07:08:50.033Z,20.80
2019-01-13T07:11:20.165Z,13.13
2019-01-13T07:13:50.387Z,17.03
2019-01-13T07:16:20.601Z,16.10
2019-01-13T07:18:50.698Z,16.83
2019-01-13T07:21:20.937Z,18.70
2019-01-13T07:23:51.020Z,15.50
2019-01-13T07:26:21.190Z,15.90
2019-01-13T07:28:51.550Z,15.37
2019-01-13T07:31:21.708Z,17.97
2019-01-13T07:33:52.827Z,22.80
2019-01-13T07:36:23.284Z,14.00
2019-01-13T07:38:53.404Z,17.77
2019-01-13T07:41:23.641Z,24.27
2019-01-13T07:43:53.781Z,18.60
2019-01-13T07:46:23.983Z,20.70
2019-01-13T07:48:54.248Z,16.63
2019-01-13T07:51:24.501Z,21.20
2019-01-13T07:53:54.722Z,20.17
2019-01-13T07:56:24.946Z,19.73
2019-01-13T07:58:55.165Z,19.80
2019-01-13T08:01:26.009Z,18.80
2019-01-13T08:03:56.647Z,16.37
2019-01-13T08:06:26.788Z,18.27
2019-01-13T08:08:56.960Z,17.77
2019-01-13T08:11:27.111Z,20.67
2019-01-13T08:13:58.167Z,16.27
2019-01-13T08:16:28.227Z,14.07
2019-01-13T08:18:58.365Z,10.47
2019-01-13T08:21:28.514Z,15.07
2019-01-13T08:23:58.755Z,14.77
2019-01-13T08:26:28.886Z,11.53
2019-01-13T08:29:00.674Z,14.10
2019-01-13T08:31:30.788Z,10.77
2019-01-13T08:34:00.911Z,16.90
2019-01-13T08:36:31.863Z,13.90
2019-01-13T08:39:02.046Z,13.17
2019-01-13T08:41:32.368Z,13.07
2019-01-13T08:44:02.779Z,11.60
2019-01-13T08:46:32.948Z,11.23
2019-01-13T08:49:03.625Z,15.73
2019-01-13T08:51:33.770Z,12.77
2019-01-13T08:54:04.397Z,17.90
2019-01-13T08:56:34.661Z,14.80
2019-01-13T08:59:05.250Z,16.20
2019-01-13T09:01:35.503Z,17.40
2019-01-13T09:04:05.794Z,20.63
2019-01-13T09:06:36.079Z,14.37
2019-01-13T09:09:09.792Z,13.43
2019-01-13T09:11:40.428Z,14.07
2019-01-13T09:14:10.613Z,13.30
2019-01-13T09:16:41.061Z,13.20
2019-01-13T09:19:11.213Z,10.83
2019-01-13T09:21:41.480Z,13.87
2019-01-13T09:24:11.632Z,13.93
2019-01-13T09:26:41.826Z,17.20
2019-01-13T09:29:12.320Z,10.97
2019-01-13T09:31:42.735Z,13.70
2019-01-13T09:34:13.395Z,11.03
2019-01-13T09:36:43.564Z,9.17
2019-01-13T09:39:13.934Z,11.70
2019-01-13T09:41:46.501Z,11.60
2019-01-13T09:44:16.865Z,13.67
2019-01-13T09:46:47.031Z,11.97
2019-01-13T09:49:17.305Z,11.00
2019-01-13T09:51:48.319Z,10.97
2019-01-13T09:54:18.746Z,13.73
2019-01-13T09:56:49.444Z,10.67
2019-01-13T09:59:19.701Z,11.93
2019-01-13T10:01:50.476Z,10.87
2019-01-13T10:04:20.774Z,11.20
2019-01-13T10:06:51.097Z,9.20
2019-01-13T10:09:21.338Z,11.10
2019-01-13T10:11:51.570Z,12.67
2019-01-13T10:14:22.170Z,8.40
2019-01-13T10:16:52.373Z,7.90
2019-01-13T10:19:22.683Z,11.77
2019-01-13T10:21:52.820Z,8.47
2019-01-13T10:24:22.958Z,9.57
2019-01-13T10:26:53.180Z,10.23
2019-01-13T10:29:23.392Z,11.00
2019-01-13T10:31:56.079Z,10.37
2019-01-13T10:34:26.550Z,10.10
2019-01-13T10:36:57.035Z,9.17
2019-01-13T10:39:27.258Z,9.37
2019-01-13T10:41:57.545Z,10.90
2019-01-13T10:44:28.603Z,9.37
2019-01-13T10:47:00.676Z,12.23
2019-01-13T10:49:30.811Z,17.47
2019-01-13T10:52:01.034Z,12.47
2019-01-13T10:54:31.486Z,14.30
2019-01-13T10:57:01.605Z,18.77
2019-01-13T10:59:33.496Z,15.33
2019-01-13T11:02:03.629Z,16.60
2019-01-13T11:04:34.390Z,14.83
2019-01-13T11:07:04.509Z,14.13
2019-01-13T11:09:34.775Z,18.40
2019-01-13T11:12:04.976Z,14.33
2019-01-13T11:14:36.075Z,13.23
2019-01-13T11:17:06.216Z,14.27
2019-01-13T11:19:36.687Z,15.73
2019-01-13T11:22:06.865Z,15.20
2019-01-13T11:24:38.958Z,12.67
2019-01-13T11:27:09.127Z,13.00
2019-01-13T11:29:39.333Z,15.07
2019-01-13T11:32:11.455Z,13.10
2019-01-13T11:34:41.630Z,13.00
2019-01-13T11:37:11.780Z,13.33
2019-01-13T11:39:41.989Z,14.03
2019-01-13T11:42:12.208Z,11.73
2019-01-13T11:44:42.481Z,12.57
2019-01-13T11:47:12.647Z,11.37
2019-01-13T11:49:43.686Z,16.20
2019-01-13T11:52:13.770Z,14.50
2019-01-13T11:54:43.940Z,13.93
2019-01-13T11:57:14.103Z,16.17
2019-01-13T11:59:44.328Z,13.10
2019-01-13T12:02:14.744Z,13.03
2019-01-13T12:04:45.002Z,12.77
2019-01-13T12:07:15.217Z,15.10
2019-01-13T12:09:45.455Z,20.50
2019-01-13T12:12:15.680Z,21.70
2019-01-13T12:14:45.946Z,20.03
2019-01-13T12:17:16.265Z,15.73
2019-01-13T12:19:46.728Z,18.83
2019-01-13T12:22:18.615Z,17.40
2019-01-13T12:24:49.159Z,17.10
2019-01-13T12:27:19.703Z,19.20
2019-01-13T12:29:49.829Z,17.60
2019-01-13T12:32:20.872Z,20.20
2019-01-13T12:34:51.157Z,24.27
2019-01-13T12:37:22.296Z,20.23
2019-01-13T12:39:54.230Z,18.30
2019-01-13T12:42:27.408Z,17.00
2019-01-13T12:44:57.712Z,21.10
2019-01-13T12:47:28.024Z,20.37
2019-01-13T12:50:05.943Z,18.13
2019-01-13T12:52:36.082Z,18.87
2019-01-13T12:55:06.904Z,15.60
2019-01-13T12:57:37.137Z,17.67
2019-01-13T13:00:10.749Z,14.80
2019-01-13T13:02:40.987Z,15.90
2019-01-13T13:05:13.571Z,19.00
2019-01-13T13:07:44.144Z,14.70
2019-01-13T13:10:17.809Z,14.67
2019-01-13T13:12:48.073Z,17.17
2019-01-13T13:15:18.585Z,17.17
2019-01-13T13:17:48.722Z,18.37
2019-01-13T13:20:19.202Z,23.33
2019-01-13T13:22:51.033Z,21.40
2019-01-13T13:25:21.256Z,24.17
2019-01-13T13:27:51.436Z,37.67
2019-01-13T13:30:22.934Z,18.07
2019-01-13T13:32:53.113Z,20.23
2019-01-13T13:35:23.479Z,20.40
2019-01-13T13:37:54.515Z,20.57
2019-01-13T13:40:25.422Z,22.90
2019-01-13T13:42:55.657Z,26.17
2019-01-13T13:45:25.807Z,26.80
2019-01-13T13:47:56.009Z,28.53
2019-01-13T13:50:27.099Z,31.27
2019-01-13T13:52:57.248Z,21.33
2019-01-13T13:55:27.650Z,23.17
2019-01-13T13:57:57.986Z,22.80
2019-01-13T14:00:35.551Z,20.07
2019-01-13T14:03:06.784Z,23.30
2019-01-13T14:05:37.063Z,25.47
2019-01-13T14:08:07.817Z,25.17
2019-01-13T14:10:42.338Z,25.63
2019-01-13T14:13:13.058Z,22.87
2019-01-13T14:15:43.200Z,24.77
2019-01-13T14:18:13.750Z,24.93
2019-01-13T14:20:44.028Z,43.10
2019-01-13T14:23:14.190Z,51.73
2019-01-13T14:25:44.456Z,35.60
2019-01-13T14:28:14.730Z,27.10
2019-01-13T14:30:46.102Z,27.23
2019-01-13T14:33:16.221Z,26.33
2019-01-13T14:35:47.286Z,27.30
2019-01-13T14:38:18.269Z,27.27
2019-01-13T14:40:48.613Z,30.33
2019-01-13T14:43:18.774Z,22.90
2019-01-13T14:45:49.307Z,24.43
2019-01-13T14:48:19.426Z,22.67
2019-01-13T14:50:49.611Z,25.63
2019-01-13T14:53:19.931Z,24.33
2019-01-13T14:55:50.948Z,26.60
2019-01-13T14:58:21.294Z,25.30
2019-01-13T15:00:51.656Z,25.40
2019-01-13T15:03:21.953Z,27.57
2019-01-13T15:05:54.006Z,24.87
2019-01-13T15:08:24.138Z,24.73
2019-01-13T15:10:54.257Z,25.00
2019-01-13T15:13:24.365Z,29.03
2019-01-13T15:15:54.498Z,24.77
2019-01-13T15:18:24.667Z,21.87
2019-01-13T15:20:55.038Z,24.93
2019-01-13T15:23:25.193Z,21.93
2019-01-13T15:25:55.366Z,25.47
2019-01-13T15:28:26.218Z,20.60
2019-01-13T15:30:56.318Z,20.10
2019-01-13T15:33:26.568Z,23.90
2019-01-13T15:35:56.767Z,21.13
2019-01-13T15:38:27.039Z,19.33
2019-01-13T15:41:00.543Z,18.97
2019-01-13T15:43:30.974Z,15.53
2019-01-13T15:46:02.728Z,18.13
2019-01-13T15:48:33.167Z,14.97
2019-01-13T15:51:03.317Z,16.80
2019-01-13T15:53:33.808Z,16.37
2019-01-13T15:56:07.378Z,13.13
2019-01-13T15:58:37.464Z,14.83
2019-01-13T16:01:07.555Z,13.97
2019-01-13T16:03:38.045Z,15.40
2019-01-13T16:06:08.554Z,11.97
2019-01-13T16:08:39.068Z,13.63
2019-01-13T16:11:09.281Z,12.03
2019-01-13T16:13:39.522Z,12.73
2019-01-13T16:16:09.687Z,12.53
2019-01-13T16:18:41.498Z,8.27
2019-01-13T16:21:19.261Z,11.10
2019-01-13T16:23:51.193Z,10.47
2019-01-13T16:26:21.408Z,8.50
2019-01-13T16:28:51.904Z,9.63
2019-01-13T16:31:22.306Z,8.83
2019-01-13T16:33:52.465Z,8.13
2019-01-13T16:36:22.677Z,6.63
2019-01-13T16:38:52.886Z,8.33
2019-01-13T16:41:23.017Z,9.57
2019-01-13T16:43:53.143Z,8.83
2019-01-13T16:46:23.326Z,9.20
2019-01-13T16:48:53.390Z,8.00
2019-01-13T16:51:24.153Z,8.37
2019-01-13T16:53:54.437Z,10.83
2019-01-13T16:56:26.510Z,7.20
2019-01-13T16:58:56.843Z,5.80
2019-01-13T17:01:27.103Z,7.27
2019-01-13T17:03:57.465Z,8.40
2019-01-13T17:06:27.922Z,4.63
2019-01-13T17:08:58.629Z,9.33
2019-01-13T17:11:29.856Z,7.00
2019-01-13T17:13:59.984Z,7.60
2019-01-13T17:16:30.129Z,8.03
2019-01-13T17:19:00.229Z,9.03
2019-01-13T17:21:30.493Z,8.27
2019-01-13T17:24:00.586Z,9.73
2019-01-13T17:26:30.936Z,10.93
2019-01-13T17:29:02.850Z,9.17
2019-01-13T17:31:32.918Z,10.50
2019-01-13T17:34:03.558Z,7.77
2019-01-13T17:36:33.712Z,8.27
2019-01-13T17:39:05.642Z,9.10
2019-01-13T17:41:36.098Z,10.20
2019-01-13T17:44:06.392Z,11.27
2019-01-13T17:46:36.537Z,8.87
2019-01-13T17:49:06.904Z,11.13
2019-01-13T17:51:41.218Z,7.90
2019-01-13T17:54:11.391Z,10.97
2019-01-13T17:56:41.557Z,11.83
2019-01-13T17:59:11.726Z,13.37
2019-01-13T18:01:51.802Z,9.80
2019-01-13T18:04:21.972Z,13.33
2019-01-13T18:06:52.213Z,12.00
2019-01-13T18:09:25.309Z,12.17
2019-01-13T18:11:55.625Z,11.97
2019-01-13T18:14:25.736Z,12.60
2019-01-13T18:16:55.976Z,12.63
2019-01-13T18:19:27.789Z,10.43
2019-01-13T18:21:58.056Z,14.63
2019-01-13T18:24:28.561Z,12.77
2019-01-13T18:26:59.190Z,13.80
2019-01-13T18:29:30.109Z,11.37
2019-01-13T18:32:00.654Z,13.97
2019-01-13T18:34:30.754Z,13.43
2019-01-13T18:37:01.159Z,15.30
2019-01-13T18:39:31.468Z,16.60
2019-01-13T18:42:01.702Z,14.73
2019-01-13T18:44:32.055Z,16.93
2019-01-13T18:47:02.151Z,13.70
2019-01-13T18:49:32.185Z,15.63
2019-01-13T18:52:02.279Z,19.43
2019-01-13T18:54:32.487Z,20.50
2019-01-13T18:57:02.765Z,15.03
2019-01-13T18:59:33.697Z,11.87
2019-01-13T19:02:03.782Z,12.37
2019-01-13T19:04:33.968Z,10.43
2019-01-13T19:07:04.340Z,9.37
2019-01-13T19:09:34.557Z,6.27
2019-01-13T19:12:05.119Z,7.20
2019-01-13T19:14:50.445Z,5.80
2019-01-13T19:17:25.606Z,4.33
2019-01-13T19:20:16.524Z,5.60
2019-01-13T19:22:49.089Z,4.77
2019-01-13T19:25:30.781Z,7.87
2019-01-13T19:28:01.185Z,5.37
2019-01-13T19:30:31.442Z,4.47
2019-01-13T19:33:01.954Z,5.37
2019-01-13T19:35:32.176Z,3.53
2019-01-13T19:38:02.313Z,5.00
2019-01-13T19:40:32.477Z,6.70
2019-01-13T19:43:02.620Z,7.33
2019-01-13T19:45:32.890Z,5.97
2019-01-13T19:48:03.136Z,10.27
2019-01-13T19:50:34.286Z,8.67
2019-01-13T19:53:04.795Z,6.53
2019-01-13T19:55:34.917Z,10.73
2019-01-13T19:58:05.192Z,8.83
2019-01-13T20:00:36.879Z,10.27
2019-01-13T20:03:08.045Z,7.30
2019-01-13T20:05:39.829Z,7.23
2019-01-13T20:08:10.039Z,7.57
2019-01-13T20:10:40.522Z,8.67
2019-01-13T20:13:10.706Z,8.80
2019-01-13T20:15:41.037Z,7.27
2019-01-13T20:18:12.163Z,6.27
2019-01-13T20:20:42.394Z,7.80
2019-01-13T20:23:12.691Z,6.83
2019-01-13T20:25:43.012Z,5.67
2019-01-13T20:28:13.206Z,9.13
2019-01-13T20:30:43.360Z,6.63
2019-01-13T20:33:13.660Z,6.87
2019-01-13T20:35:43.886Z,8.13
2019-01-13T20:38:14.107Z,7.33
2019-01-13T20:40:44.177Z,7.33
2019-01-13T20:43:14.388Z,8.67
2019-01-13T20:45:44.547Z,8.20
2019-01-13T20:48:14.880Z,8.10
2019-01-13T20:50:46.705Z,5.90
2019-01-13T20:53:17.870Z,9.97
2019-01-13T20:55:47.956Z,7.07
2019-01-13T20:58:18.107Z,11.13
2019-01-13T21:00:48.153Z,6.40
2019-01-13T21:03:19.724Z,9.23
2019-01-13T21:05:49.738Z,7.23
2019-01-13T21:08:20.072Z,9.80
2019-01-13T21:10:50.557Z,11.80
2019-01-13T21:13:21.380Z,7.30
2019-01-13T21:15:51.664Z,7.20
2019-01-13T21:18:21.789Z,10.23
2019-01-13T21:20:52.004Z,9.60
2019-01-13T21:23:22.313Z,10.90
2019-01-13T21:25:52.360Z,11.03
2019-01-13T21:28:22.612Z,10.97
2019-01-13T21:30:52.855Z,10.87
2019-01-13T21:33:22.984Z,11.73
2019-01-13T21:35:53.150Z,7.00
2019-01-13T21:38:23.386Z,7.80
2019-01-13T21:40:53.610Z,13.03
2019-01-13T21:43:23.741Z,8.23
2019-01-13T21:45:53.947Z,11.10
2019-01-13T21:48:24.307Z,12.67
2019-01-13T21:50:54.352Z,14.67
2019-01-13T21:53:24.510Z,11.60
2019-01-13T21:55:54.722Z,11.77
2019-01-13T21:58:25.003Z,11.80
2019-01-13T22:00:55.269Z,13.07
2019-01-13T22:03:25.786Z,10.10
2019-01-13T22:05:55.998Z,13.47
2019-01-13T22:08:26.073Z,13.57
2019-01-13T22:10:56.188Z,12.83
2019-01-13T22:13:26.704Z,14.50
2019-01-13T22:15:56.825Z,14.97
2019-01-13T22:18:26.941Z,13.03
2019-01-13T22:20:56.998Z,15.03
2019-01-13T22:23:29.847Z,14.07
2019-01-13T22:26:00.207Z,19.17
2019-01-13T22:28:31.269Z,17.03
2019-01-13T22:31:03.040Z,14.80
2019-01-13T22:33:33.217Z,15.73
2019-01-13T22:36:03.904Z,14.47
2019-01-13T22:38:33.995Z,14.47
2019-01-13T22:41:04.619Z,16.30
2019-01-13T22:43:34.976Z,16.57
2019-01-13T22:46:05.101Z,14.23
2019-01-13T22:48:35.495Z,14.70
2019-01-13T22:51:06.048Z,15.07
2019-01-13T22:53:36.243Z,14.10
2019-01-13T22:56:06.332Z,14.23
2019-01-13T22:58:36.662Z,19.20
2019-01-13T23:01:36.555Z,15.83
2019-01-13T23:04:11.305Z,16.83
2019-01-13T23:06:41.493Z,16.60
2019-01-13T23:09:13.016Z,19.10
2019-01-13T23:11:43.137Z,18.30
2019-01-13T23:14:13.400Z,15.40
2019-01-13T23:16:44.005Z,14.43
2019-01-13T23:19:14.257Z,13.47
2019-01-13T23:21:45.404Z,17.83
2019-01-13T23:24:15.545Z,13.23
2019-01-13T23:26:45.685Z,18.93
2019-01-13T23:29:15.757Z,13.33
2019-01-13T23:31:45.769Z,13.43
2019-01-13T23:34:15.840Z,18.57
2019-01-13T23:36:45.971Z,18.30
2019-01-13T23:39:16.012Z,16.77
2019-01-13T23:41:46.044Z,16.67
2019-01-13T23:44:16.293Z,14.90
2019-01-13T23:46:48.768Z,14.73
2019-01-13T23:49:19.115Z,16.57
2019-01-13T23:51:49.440Z,17.00
2019-01-13T23:54:19.581Z,18.97
2019-01-13T23:56:49.745Z,12.67
2019-01-13T23:59:19.872Z,15.07
